sensor_id;sensor_type;location;lat;lon;timestamp;pressure;altitude;pressure_sealevel;temperature;humidity
12949;BME280;6539;49.476;8.484;2023-12-20T00:00:28;100624.53;;;5.58;100.00
12949;BME280;6539;49.476;8.484;2023-12-20T00:03:17;100621.03;;;5.58;100.00
12949;BME280;6539;49.476;8.484;2023-12-20T00:06:05;100615.53;;;5.54;100.00
12949;BME280;6539;49.476;8.484;2023-12-20T00:08:54;100607.78;;;5.56;100.00
12949;BME280;6539;49.476;8.484;2023-12-20T00:11:40;100609.34;;;5.57;100.00
12949;BME280;6539;49.476;8.484;2023-12-20T00:14:28;100606.22;;;5.55;100.00
12949;BME280;6539;49.476;8.484;2023-12-20T00:17:14;100609.34;;;5.57;100.00
12949;BME280;6539;49.476;8.484;2023-12-20T00:20:00;100604.28;;;5.56;100.00
12949;BME280;6539;49.476;8.484;2023-12-20T00:22:46;100608.22;;;5.58;100.00
12949;BME280;6539;49.476;8.484;2023-12-20T00:25:32;100605.78;;;5.53;100.00
12949;BME280;6539;49.476;8.484;2023-12-20T00:28:18;100608.97;;;5.59;100.00
12949;BME280;6539;49.476;8.484;2023-12-20T00:31:04;100602.00;;;5.61;100.00
12949;BME280;6539;49.476;8.484;2023-12-20T00:33:52;100611.69;;;5.59;100.00
12949;BME280;6539;49.476;8.484;2023-12-20T00:36:48;100605.53;;;5.62;100.00
12949;BME280;6539;49.476;8.484;2023-12-20T00:39:34;100613.28;;;5.60;100.00
12949;BME280;6539;49.476;8.484;2023-12-20T00:42:23;100604.75;;;5.61;100.00
12949;BME280;6539;49.476;8.484;2023-12-20T00:45:09;100595.34;;;5.59;100.00
12949;BME280;6539;49.476;8.484;2023-12-20T00:47:55;100590.41;;;5.64;100.00
12949;BME280;6539;49.476;8.484;2023-12-20T00:50:45;100592.38;;;5.67;100.00
12949;BME280;6539;49.476;8.484;2023-12-20T00:53:31;100601.66;;;5.63;100.00
12949;BME280;6539;49.476;8.484;2023-12-20T00:56:19;100589.97;;;5.62;100.00
12949;BME280;6539;49.476;8.484;2023-12-20T00:59:05;100595.00;;;5.60;100.00
12949;BME280;6539;49.476;8.484;2023-12-20T01:01:51;100588.09;;;5.66;100.00
12949;BME280;6539;49.476;8.484;2023-12-20T01:04:37;100584.97;;;5.64;100.00
12949;BME280;6539;49.476;8.484;2023-12-20T01:07:25;100594.69;;;5.65;100.00
12949;BME280;6539;49.476;8.484;2023-12-20T01:10:14;100588.50;;;5.68;100.00
12949;BME280;6539;49.476;8.484;2023-12-20T01:13:00;100588.94;;;5.70;100.00
12949;BME280;6539;49.476;8.484;2023-12-20T01:15:50;100586.47;;;5.62;100.00
12949;BME280;6539;49.476;8.484;2023-12-20T01:18:41;100577.19;;;5.66;100.00
12949;BME280;6539;49.476;8.484;2023-12-20T01:21:27;100574.84;;;5.65;100.00
12949;BME280;6539;49.476;8.484;2023-12-20T01:24:15;100576.78;;;5.64;100.00
12949;BME280;6539;49.476;8.484;2023-12-20T01:27:01;100584.13;;;5.60;100.00
12949;BME280;6539;49.476;8.484;2023-12-20T01:29:48;100570.50;;;5.60;100.00
12949;BME280;6539;49.476;8.484;2023-12-20T01:32:34;100577.09;;;5.59;100.00
12949;BME280;6539;49.476;8.484;2023-12-20T01:35:23;100577.16;;;5.63;100.00
12949;BME280;6539;49.476;8.484;2023-12-20T01:38:09;100577.94;;;5.63;100.00
12949;BME280;6539;49.476;8.484;2023-12-20T01:40:58;100584.13;;;5.60;100.00
12949;BME280;6539;49.476;8.484;2023-12-20T01:43:45;100591.03;;;5.54;100.00
12949;BME280;6539;49.476;8.484;2023-12-20T01:46:31;100586.00;;;5.56;100.00
12949;BME280;6539;49.476;8.484;2023-12-20T01:49:17;100586.88;;;5.64;100.00
12949;BME280;6539;49.476;8.484;2023-12-20T01:52:08;100579.50;;;5.64;100.00
12949;BME280;6539;49.476;8.484;2023-12-20T01:54:55;100575.63;;;5.65;100.00
12949;BME280;6539;49.476;8.484;2023-12-20T01:57:47;100582.22;;;5.64;100.00
12949;BME280;6539;49.476;8.484;2023-12-20T02:00:33;100574.44;;;5.63;100.00
12949;BME280;6539;49.476;8.484;2023-12-20T02:03:23;100569.34;;;5.61;100.00
12949;BME280;6539;49.476;8.484;2023-12-20T02:06:11;100584.13;;;5.60;100.00
12949;BME280;6539;49.476;8.484;2023-12-20T02:08:58;100590.41;;;5.64;100.00
12949;BME280;6539;49.476;8.484;2023-12-20T02:11:44;100588.06;;;5.63;100.00
12949;BME280;6539;49.476;8.484;2023-12-20T02:14:33;100591.47;;;5.56;100.00
12949;BME280;6539;49.476;8.484;2023-12-20T02:17:19;100587.38;;;5.69;100.00
12949;BME280;6539;49.476;8.484;2023-12-20T02:20:09;100586.09;;;5.63;100.00
12949;BME280;6539;49.476;8.484;2023-12-20T02:22:55;100578.31;;;5.62;100.00
12949;BME280;6539;49.476;8.484;2023-12-20T02:25:46;100575.88;;;5.57;100.00
12949;BME280;6539;49.476;8.484;2023-12-20T02:28:34;100570.91;;;5.62;100.00
12949;BME280;6539;49.476;8.484;2023-12-20T02:31:22;100578.72;;;5.64;100.00
12949;BME280;6539;49.476;8.484;2023-12-20T02:34:11;100579.94;;;5.66;100.00
12949;BME280;6539;49.476;8.484;2023-12-20T02:36:57;100584.97;;;5.64;100.00
12949;BME280;6539;49.476;8.484;2023-12-20T02:39:46;100587.25;;;5.62;100.00
12949;BME280;6539;49.476;8.484;2023-12-20T02:42:34;100585.25;;;5.59;100.00
12949;BME280;6539;49.476;8.484;2023-12-20T02:45:20;100577.09;;;5.59;100.00
12949;BME280;6539;49.476;8.484;2023-12-20T02:48:07;100558.38;;;5.54;100.00
12949;BME280;6539;49.476;8.484;2023-12-20T02:50:55;100550.13;;;5.51;100.00
12949;BME280;6539;49.476;8.484;2023-12-20T02:53:41;100570.41;;;5.53;100.00
12949;BME280;6539;49.476;8.484;2023-12-20T02:56:27;100566.53;;;5.54;100.00
12949;BME280;6539;49.476;8.484;2023-12-20T02:59:13;100563.47;;;5.59;100.00
12949;BME280;6539;49.476;8.484;2023-12-20T03:01:59;100572.06;;;5.61;100.00
12949;BME280;6539;49.476;8.484;2023-12-20T03:04:48;100577.84;;;5.56;100.00
12949;BME280;6539;49.476;8.484;2023-12-20T03:07:36;100577.09;;;5.59;100.00
12949;BME280;6539;49.476;8.484;2023-12-20T03:10:25;100571.22;;;5.57;100.00
12949;BME280;6539;49.476;8.484;2023-12-20T03:13:13;100575.16;;;5.60;100.00
12949;BME280;6539;49.476;8.484;2023-12-20T03:15:59;100571.66;;;5.59;100.00
12949;BME280;6539;49.476;8.484;2023-12-20T03:18:45;100569.72;;;5.60;100.00
12949;BME280;6539;49.476;8.484;2023-12-20T03:21:31;100584.47;;;5.59;100.00
12949;BME280;6539;49.476;8.484;2023-12-20T03:24:17;100576.72;;;5.61;100.00
12949;BME280;6539;49.476;8.484;2023-12-20T03:27:03;100594.69;;;5.65;100.00
12949;BME280;6539;49.476;8.484;2023-12-20T03:29:57;100594.22;;;5.60;100.00
12949;BME280;6539;49.476;8.484;2023-12-20T03:32:44;100598.50;;;5.61;100.00
12949;BME280;6539;49.476;8.484;2023-12-20T03:35:30;100589.34;;;5.72;100.00
12949;BME280;6539;49.476;8.484;2023-12-20T03:38:22;100587.78;;;5.71;100.00
12949;BME280;6539;49.476;8.484;2023-12-20T03:41:09;100580.34;;;5.68;100.00
12949;BME280;6539;49.476;8.484;2023-12-20T03:43:55;100589.66;;;5.67;100.00
12949;BME280;6539;49.476;8.484;2023-12-20T03:46:44;100587.38;;;5.69;100.00
12949;BME280;6539;49.476;8.484;2023-12-20T03:49:31;100573.75;;;5.69;100.00
12949;BME280;6539;49.476;8.484;2023-12-20T03:52:19;100573.31;;;5.67;100.00
12949;BME280;6539;49.476;8.484;2023-12-20T03:55:06;100580.31;;;5.65;100.00
12949;BME280;6539;49.476;8.484;2023-12-20T03:57:52;100581.41;;;5.60;100.00
12949;BME280;6539;49.476;8.484;2023-12-20T04:00:38;100590.44;;;5.68;100.00
12949;BME280;6539;49.476;8.484;2023-12-20T04:03:26;100587.09;;;5.78;100.00
12949;BME280;6539;49.476;8.484;2023-12-20T04:06:18;100600.34;;;5.79;100.00
12949;BME280;6539;49.476;8.484;2023-12-20T04:09:04;100594.63;;;5.84;100.00
12949;BME280;6539;49.476;8.484;2023-12-20T04:11:52;100600.53;;;5.90;100.00
12949;BME280;6539;49.476;8.484;2023-12-20T04:14:38;100604.34;;;5.85;100.00
12949;BME280;6539;49.476;8.484;2023-12-20T04:17:27;100596.22;;;5.89;100.00
12949;BME280;6539;49.476;8.484;2023-12-20T04:20:15;100604.75;;;5.87;100.00
12949;BME280;6539;49.476;8.484;2023-12-20T04:23:01;100607.91;;;5.89;100.00
12949;BME280;6539;49.476;8.484;2023-12-20T04:25:47;100599.72;;;5.89;100.00
12949;BME280;6539;49.476;8.484;2023-12-20T04:28:35;100607.75;;;5.82;100.00
12949;BME280;6539;49.476;8.484;2023-12-20T04:31:22;100607.59;;;5.94;100.00
12949;BME280;6539;49.476;8.484;2023-12-20T04:34:08;100618.41;;;5.91;100.00
12949;BME280;6539;49.476;8.484;2023-12-20T04:36:54;100619.97;;;5.88;100.00
12949;BME280;6539;49.476;8.484;2023-12-20T04:39:42;100633.88;;;5.83;100.00
12949;BME280;6539;49.476;8.484;2023-12-20T04:42:28;100632.78;;;5.88;100.00
12949;BME280;6539;49.476;8.484;2023-12-20T04:45:15;100645.31;;;5.92;100.00
12949;BME280;6539;49.476;8.484;2023-12-20T04:48:05;100630.59;;;5.97;100.00
12949;BME280;6539;49.476;8.484;2023-12-20T04:50:51;100634.47;;;5.96;100.00
12949;BME280;6539;49.476;8.484;2023-12-20T04:53:37;100636.91;;;6.04;100.00
12949;BME280;6539;49.476;8.484;2023-12-20T04:56:23;100638.84;;;6.04;100.00
12949;BME280;6539;49.476;8.484;2023-12-20T04:59:14;100639.63;;;6.04;100.00
12949;BME280;6539;49.476;8.484;2023-12-20T05:02:00;100644.00;;;6.09;100.00
12949;BME280;6539;49.476;8.484;2023-12-20T05:04:46;100658.44;;;6.13;100.00
12949;BME280;6539;49.476;8.484;2023-12-20T05:07:33;100647.88;;;6.08;100.00
12949;BME280;6539;49.476;8.484;2023-12-20T05:10:21;100651.59;;;5.96;100.00
12949;BME280;6539;49.476;8.484;2023-12-20T05:13:07;100647.81;;;6.04;100.00
12949;BME280;6539;49.476;8.484;2023-12-20T05:15:53;100660.81;;;6.14;100.00
12949;BME280;6539;49.476;8.484;2023-12-20T05:18:40;100668.56;;;6.12;100.00
12949;BME280;6539;49.476;8.484;2023-12-20T05:21:26;100657.34;;;6.18;100.00
12949;BME280;6539;49.476;8.484;2023-12-20T05:24:14;100654.22;;;6.19;100.00
12949;BME280;6539;49.476;8.484;2023-12-20T05:27:00;100666.59;;;6.09;100.00
12949;BME280;6539;49.476;8.484;2023-12-20T05:29:47;100671.72;;;6.14;100.00
12949;BME280;6539;49.476;8.484;2023-12-20T05:32:35;100673.81;;;6.25;100.00
12949;BME280;6539;49.476;8.484;2023-12-20T05:35:21;100675.03;;;6.31;100.00
12949;BME280;6539;49.476;8.484;2023-12-20T05:38:09;100677.47;;;6.36;100.00
12949;BME280;6539;49.476;8.484;2023-12-20T05:40:55;100671.59;;;6.34;100.00
12949;BME280;6539;49.476;8.484;2023-12-20T05:43:41;100681.16;;;6.21;100.00
12949;BME280;6539;49.476;8.484;2023-12-20T05:46:27;100694.97;;;6.35;100.00
12949;BME280;6539;49.476;8.484;2023-12-20T05:49:13;100699.53;;;6.27;100.00
12949;BME280;6539;49.476;8.484;2023-12-20T05:52:00;100708.16;;;6.33;100.00
12949;BME280;6539;49.476;8.484;2023-12-20T05:54:50;100722.75;;;6.18;100.00
12949;BME280;6539;49.476;8.484;2023-12-20T05:57:39;100735.50;;;6.10;100.00
12949;BME280;6539;49.476;8.484;2023-12-20T06:00:25;100733.63;;;6.14;100.00
12949;BME280;6539;49.476;8.484;2023-12-20T06:03:11;100737.44;;;6.09;100.00
12949;BME280;6539;49.476;8.484;2023-12-20T06:05:57;100742.13;;;6.12;100.00
12949;BME280;6539;49.476;8.484;2023-12-20T06:08:43;100741.19;;;6.28;100.00
12949;BME280;6539;49.476;8.484;2023-12-20T06:11:32;100759.78;;;6.19;100.00
12949;BME280;6539;49.476;8.484;2023-12-20T06:14:18;100751.47;;;6.11;100.00
12949;BME280;6539;49.476;8.484;2023-12-20T06:17:04;100754.63;;;6.13;100.00
12949;BME280;6539;49.476;8.484;2023-12-20T06:19:52;100753.91;;;6.17;100.00
12949;BME280;6539;49.476;8.484;2023-12-20T06:22:38;100765.22;;;6.19;100.00
12949;BME280;6539;49.476;8.484;2023-12-20T06:25:27;100750.91;;;6.25;100.00
12949;BME280;6539;49.476;8.484;2023-12-20T06:28:13;100754.75;;;6.21;100.00
12949;BME280;6539;49.476;8.484;2023-12-20T06:31:00;100750.00;;;6.18;100.00
12949;BME280;6539;49.476;8.484;2023-12-20T06:33:52;100753.50;;;6.14;100.00
12949;BME280;6539;49.476;8.484;2023-12-20T06:36:43;100757.81;;;6.19;100.00
12949;BME280;6539;49.476;8.484;2023-12-20T06:39:29;100755.72;;;6.09;100.00
12949;BME280;6539;49.476;8.484;2023-12-20T06:42:16;100759.91;;;6.03;100.00
12949;BME280;6539;49.476;8.484;2023-12-20T06:45:03;100756.69;;;5.97;100.00
12949;BME280;6539;49.476;8.484;2023-12-20T06:47:52;100762.09;;;5.94;100.00
12949;BME280;6539;49.476;8.484;2023-12-20T06:50:42;100761.25;;;5.90;100.00
12949;BME280;6539;49.476;8.484;2023-12-20T06:53:29;100762.81;;;5.91;100.00
12949;BME280;6539;49.476;8.484;2023-12-20T06:56:15;100767.50;;;5.90;100.00
12949;BME280;6539;49.476;8.484;2023-12-20T06:59:02;100773.66;;;5.87;100.00
12949;BME280;6539;49.476;8.484;2023-12-20T07:01:50;100771.91;;;5.98;100.00
12949;BME280;6539;49.476;8.484;2023-12-20T07:04:41;100765.19;;;5.92;100.00
12949;BME280;6539;49.476;8.484;2023-12-20T07:07:29;100771.38;;;5.89;100.00
12949;BME280;6539;49.476;8.484;2023-12-20T07:10:17;100765.91;;;5.89;100.00
12949;BME280;6539;49.476;8.484;2023-12-20T07:13:04;100762.81;;;5.91;100.00
12949;BME280;6539;49.476;8.484;2023-12-20T07:15:55;100771.69;;;5.84;100.00
12949;BME280;6539;49.476;8.484;2023-12-20T07:18:44;100782.09;;;5.82;100.00
12949;BME280;6539;49.476;8.484;2023-12-20T07:21:31;100786.28;;;5.76;100.00
12949;BME280;6539;49.476;8.484;2023-12-20T07:24:20;100769.94;;;5.76;100.00
12949;BME280;6539;49.476;8.484;2023-12-20T07:27:06;100769.53;;;5.74;100.00
12949;BME280;6539;49.476;8.484;2023-12-20T07:29:54;100772.25;;;5.74;100.00
12949;BME280;6539;49.476;8.484;2023-12-20T07:32:40;100771.88;;;5.76;100.00
12949;BME280;6539;49.476;8.484;2023-12-20T07:35:26;100775.72;;;5.71;100.00
12949;BME280;6539;49.476;8.484;2023-12-20T07:38:12;100792.91;;;5.75;100.00
12949;BME280;6539;49.476;8.484;2023-12-20T07:41:01;100800.66;;;5.73;100.00
12949;BME280;6539;49.476;8.484;2023-12-20T07:43:49;100795.63;;;5.75;100.00
12949;BME280;6539;49.476;8.484;2023-12-20T07:46:38;100802.75;;;5.83;100.00
12949;BME280;6539;49.476;8.484;2023-12-20T07:49:24;100800.50;;;5.85;100.00
12949;BME280;6539;49.476;8.484;2023-12-20T07:52:12;100810.09;;;5.79;100.00
12949;BME280;6539;49.476;8.484;2023-12-20T07:55:01;100819.94;;;5.84;100.00
12949;BME280;6539;49.476;8.484;2023-12-20T07:57:49;100819.69;;;5.92;100.00
12949;BME280;6539;49.476;8.484;2023-12-20T08:00:40;100816.59;;;5.94;100.00
12949;BME280;6539;49.476;8.484;2023-12-20T08:03:26;100815.81;;;5.93;100.00
12949;BME280;6539;49.476;8.484;2023-12-20T08:06:18;100815.13;;;6.00;100.00
12949;BME280;6539;49.476;8.484;2023-12-20T08:09:06;100815.88;;;5.97;100.00
12949;BME280;6539;49.476;8.484;2023-12-20T08:11:54;100819.56;;;6.08;100.00
12949;BME280;6539;49.476;8.484;2023-12-20T08:14:47;100826.63;;;6.12;100.00
12949;BME280;6539;49.476;8.484;2023-12-20T08:17:38;100831.22;;;6.08;100.00
12949;BME280;6539;49.476;8.484;2023-12-20T08:20:31;100830.16;;;6.13;100.00
12949;BME280;6539;49.476;8.484;2023-12-20T08:23:18;100812.66;;;6.14;100.00
12949;BME280;6539;49.476;8.484;2023-12-20T08:26:07;100823.06;;;6.08;100.00
12949;BME280;6539;49.476;8.484;2023-12-20T08:28:53;100830.16;;;5.90;100.00
12949;BME280;6539;49.476;8.484;2023-12-20T08:31:39;100831.81;;;5.95;100.00
12949;BME280;6539;49.476;8.484;2023-12-20T08:34:25;100832.94;;;5.94;100.00
12949;BME280;6539;49.476;8.484;2023-12-20T08:37:11;100828.19;;;5.91;100.00
12949;BME280;6539;49.476;8.484;2023-12-20T08:39:57;100829.00;;;5.91;100.00
12949;BME280;6539;49.476;8.484;2023-12-20T08:42:43;100831.19;;;6.05;100.00
12949;BME280;6539;49.476;8.484;2023-12-20T08:45:34;100829.25;;;6.05;100.00
12949;BME280;6539;49.476;8.484;2023-12-20T08:48:20;100824.69;;;6.13;100.00
12949;BME280;6539;49.476;8.484;2023-12-20T08:51:09;100825.69;;;6.28;100.00
12949;BME280;6539;49.476;8.484;2023-12-20T08:53:58;100829.47;;;6.20;100.00
12949;BME280;6539;49.476;8.484;2023-12-20T08:56:46;100828.13;;;6.33;100.00
12949;BME280;6539;49.476;8.484;2023-12-20T08:59:32;100837.47;;;6.32;98.34
12949;BME280;6539;49.476;8.484;2023-12-20T09:02:18;100850.06;;;6.40;98.56
12949;BME280;6539;49.476;8.484;2023-12-20T09:05:05;100852.91;;;6.47;98.32
12949;BME280;6539;49.476;8.484;2023-12-20T09:07:51;100844.31;;;6.45;98.30
12949;BME280;6539;49.476;8.484;2023-12-20T09:10:37;100845.22;;;6.56;96.77
12949;BME280;6539;49.476;8.484;2023-12-20T09:13:24;100846.59;;;6.69;97.53
12949;BME280;6539;49.476;8.484;2023-12-20T09:16:14;100846.41;;;6.81;97.57
12949;BME280;6539;49.476;8.484;2023-12-20T09:19:02;100848.38;;;6.84;94.29
12949;BME280;6539;49.476;8.484;2023-12-20T09:21:51;100839.16;;;7.25;94.17
12949;BME280;6539;49.476;8.484;2023-12-20T09:24:40;100849.13;;;7.11;95.04
12949;BME280;6539;49.476;8.484;2023-12-20T09:27:28;100860.47;;;7.13;92.82
12949;BME280;6539;49.476;8.484;2023-12-20T09:30:14;100855.19;;;6.71;94.47
12949;BME280;6539;49.476;8.484;2023-12-20T09:33:00;100863.19;;;6.83;95.14
12949;BME280;6539;49.476;8.484;2023-12-20T09:35:46;100873.56;;;7.00;93.13
12949;BME280;6539;49.476;8.484;2023-12-20T09:38:33;100859.75;;;7.16;92.20
12949;BME280;6539;49.476;8.484;2023-12-20T09:41:22;100861.53;;;7.67;90.75
12949;BME280;6539;49.476;8.484;2023-12-20T09:44:16;100869.56;;;7.53;89.86
12949;BME280;6539;49.476;8.484;2023-12-20T09:47:05;100865.63;;;7.18;92.07
12949;BME280;6539;49.476;8.484;2023-12-20T09:49:52;100864.03;;;6.87;92.12
12949;BME280;6539;49.476;8.484;2023-12-20T09:52:41;100870.16;;;6.80;93.05
12949;BME280;6539;49.476;8.484;2023-12-20T09:55:30;100854.34;;;7.52;90.99
12949;BME280;6539;49.476;8.484;2023-12-20T09:58:18;100875.44;;;7.22;89.53
12949;BME280;6539;49.476;8.484;2023-12-20T10:01:09;100878.91;;;7.23;89.38
12949;BME280;6539;49.476;8.484;2023-12-20T10:04:01;100878.25;;;7.03;89.85
12949;BME280;6539;49.476;8.484;2023-12-20T10:06:52;100850.22;;;7.03;91.38
12949;BME280;6539;49.476;8.484;2023-12-20T10:09:42;100856.53;;;7.10;91.59
12949;BME280;6539;49.476;8.484;2023-12-20T10:12:31;100862.22;;;7.28;92.19
12949;BME280;6539;49.476;8.484;2023-12-20T10:15:22;100862.06;;;7.14;92.18
12949;BME280;6539;49.476;8.484;2023-12-20T10:18:12;100857.97;;;7.30;91.74
12949;BME280;6539;49.476;8.484;2023-12-20T10:21:00;100847.38;;;7.25;91.67
12949;BME280;6539;49.476;8.484;2023-12-20T10:23:46;100844.03;;;7.39;91.95
12949;BME280;6539;49.476;8.484;2023-12-20T10:26:32;100846.78;;;7.42;89.81
12949;BME280;6539;49.476;8.484;2023-12-20T10:29:21;100834.66;;;7.40;90.02
12949;BME280;6539;49.476;8.484;2023-12-20T10:32:27;100844.25;;;7.27;90.75
12949;BME280;6539;49.476;8.484;2023-12-20T10:35:13;100848.59;;;7.31;91.36
12949;BME280;6539;49.476;8.484;2023-12-20T10:38:08;100843.22;;;7.38;90.44
12949;BME280;6539;49.476;8.484;2023-12-20T10:40:57;100857.31;;;7.40;89.71
12949;BME280;6539;49.476;8.484;2023-12-20T10:43:46;100846.78;;;7.09;91.33
12949;BME280;6539;49.476;8.484;2023-12-20T10:46:35;100847.66;;;7.17;91.97
12949;BME280;6539;49.476;8.484;2023-12-20T10:49:23;100840.88;;;7.37;90.08
12949;BME280;6539;49.476;8.484;2023-12-20T10:52:14;100839.00;;;7.11;91.64
12949;BME280;6539;49.476;8.484;2023-12-20T10:55:02;100852.50;;;7.30;88.95
12949;BME280;6539;49.476;8.484;2023-12-20T10:58:04;100851.28;;;7.24;90.52
12949;BME280;6539;49.476;8.484;2023-12-20T11:01:00;100838.66;;;7.46;89.43
12949;BME280;6539;49.476;8.484;2023-12-20T11:03:53;100836.22;;;7.37;89.21
12949;BME280;6539;49.476;8.484;2023-12-20T11:06:54;100832.28;;;7.35;89.68
12949;BME280;6539;49.476;8.484;2023-12-20T11:09:58;100830.66;;;7.30;89.95
12949;BME280;6539;49.476;8.484;2023-12-20T11:12:56;100822.06;;;7.28;88.81
12949;BME280;6539;49.476;8.484;2023-12-20T11:15:45;100827.34;;;7.47;88.99
12949;BME280;6539;49.476;8.484;2023-12-20T11:18:32;100819.47;;;7.42;88.61
12949;BME280;6539;49.476;8.484;2023-12-20T11:21:18;100813.06;;;7.28;90.42
12949;BME280;6539;49.476;8.484;2023-12-20T11:24:07;100806.97;;;7.08;90.72
12949;BME280;6539;49.476;8.484;2023-12-20T11:26:56;100805.91;;;7.16;91.85
12949;BME280;6539;49.476;8.484;2023-12-20T11:29:58;100803.94;;;7.13;91.76
12949;BME280;6539;49.476;8.484;2023-12-20T11:32:46;100795.69;;;7.10;91.97
12949;BME280;6539;49.476;8.484;2023-12-20T11:35:35;100799.63;;;7.12;92.37
12949;BME280;6539;49.476;8.484;2023-12-20T11:38:27;100797.78;;;7.20;91.51
12949;BME280;6539;49.476;8.484;2023-12-20T11:41:15;100800.72;;;7.08;91.79
12949;BME280;6539;49.476;8.484;2023-12-20T11:44:01;100808.41;;;7.28;91.87
12949;BME280;6539;49.476;8.484;2023-12-20T11:46:51;100812.97;;;7.21;92.64
12949;BME280;6539;49.476;8.484;2023-12-20T11:49:39;100808.47;;;7.02;93.00
12949;BME280;6539;49.476;8.484;2023-12-20T11:52:28;100801.94;;;7.10;93.18
12949;BME280;6539;49.476;8.484;2023-12-20T11:55:16;100803.75;;;7.29;92.86
12949;BME280;6539;49.476;8.484;2023-12-20T11:58:05;100801.03;;;7.32;91.19
12949;BME280;6539;49.476;8.484;2023-12-20T12:00:51;100803.38;;;7.34;89.99
12949;BME280;6539;49.476;8.484;2023-12-20T12:03:37;100804.91;;;7.31;89.97
12949;BME280;6539;49.476;8.484;2023-12-20T12:06:24;100807.50;;;7.17;90.68
12949;BME280;6539;49.476;8.484;2023-12-20T12:09:10;100811.53;;;7.30;89.82
12949;BME280;6539;49.476;8.484;2023-12-20T12:11:56;100803.22;;;7.20;89.38
12949;BME280;6539;49.476;8.484;2023-12-20T12:14:44;100802.59;;;7.00;89.96
12949;BME280;6539;49.476;8.484;2023-12-20T12:17:32;100806.66;;;7.13;89.18
12949;BME280;6539;49.476;8.484;2023-12-20T12:20:20;100810.41;;;7.02;89.53
12949;BME280;6539;49.476;8.484;2023-12-20T12:23:08;100794.13;;;7.09;89.96
12949;BME280;6539;49.476;8.484;2023-12-20T12:25:57;100797.28;;;7.11;89.35
12949;BME280;6539;49.476;8.484;2023-12-20T12:28:48;100794.94;;;7.13;88.32
12949;BME280;6539;49.476;8.484;2023-12-20T12:31:39;100789.09;;;7.14;88.80
12949;BME280;6539;49.476;8.484;2023-12-20T12:34:30;100794.25;;;7.19;87.73
12949;BME280;6539;49.476;8.484;2023-12-20T12:37:16;100796.94;;;7.16;87.33
12949;BME280;6539;49.476;8.484;2023-12-20T12:40:06;100801.28;;;7.20;88.31
12949;BME280;6539;49.476;8.484;2023-12-20T12:42:52;100798.22;;;7.25;87.53
12949;BME280;6539;49.476;8.484;2023-12-20T12:45:38;100797.66;;;7.09;88.02
12949;BME280;6539;49.476;8.484;2023-12-20T12:48:26;100798.06;;;7.11;86.34
12949;BME280;6539;49.476;8.484;2023-12-20T12:51:13;100800.38;;;7.09;84.87
12949;BME280;6539;49.476;8.484;2023-12-20T12:54:00;100788.81;;;7.23;84.71
12949;BME280;6539;49.476;8.484;2023-12-20T12:56:48;100796.28;;;7.26;83.48
12949;BME280;6539;49.476;8.484;2023-12-20T12:59:37;100796.06;;;7.08;83.98
12949;BME280;6539;49.476;8.484;2023-12-20T13:02:24;100801.28;;;7.20;84.56
12949;BME280;6539;49.476;8.484;2023-12-20T13:05:10;100798.47;;;7.13;83.49
12949;BME280;6539;49.476;8.484;2023-12-20T13:07:56;100793.88;;;7.21;84.12
12949;BME280;6539;49.476;8.484;2023-12-20T13:10:42;100795.66;;;7.39;84.10
12949;BME280;6539;49.476;8.484;2023-12-20T13:13:29;100794.38;;;7.30;85.04
12949;BME280;6539;49.476;8.484;2023-12-20T13:16:18;100790.44;;;7.27;86.17
12949;BME280;6539;49.476;8.484;2023-12-20T13:19:06;100782.59;;;7.22;86.74
12949;BME280;6539;49.476;8.484;2023-12-20T13:21:53;100758.06;;;7.26;87.02
12949;BME280;6539;49.476;8.484;2023-12-20T13:24:39;100740.47;;;7.23;86.51
12949;BME280;6539;49.476;8.484;2023-12-20T13:27:26;100721.34;;;7.23;85.86
12949;BME280;6539;49.476;8.484;2023-12-20T13:30:16;100708.72;;;7.08;86.41
12949;BME280;6539;49.476;8.484;2023-12-20T13:33:04;100702.25;;;7.27;86.17
12949;BME280;6539;49.476;8.484;2023-12-20T13:35:53;100689.00;;;7.25;85.41
12949;BME280;6539;49.476;8.484;2023-12-20T13:38:42;100686.63;;;7.20;85.01
12949;BME280;6539;49.476;8.484;2023-12-20T13:41:28;100688.66;;;7.30;84.93
12949;BME280;6539;49.476;8.484;2023-12-20T13:44:17;100688.75;;;7.37;84.76
12949;BME280;6539;49.476;8.484;2023-12-20T13:47:03;100708.59;;;7.34;84.75
12949;BME280;6539;49.476;8.484;2023-12-20T13:49:54;100705.75;;;7.24;84.86
12949;BME280;6539;49.476;8.484;2023-12-20T13:52:41;100703.94;;;7.38;85.17
12949;BME280;6539;49.476;8.484;2023-12-20T13:55:30;100691.81;;;7.32;85.06
12949;BME280;6539;49.476;8.484;2023-12-20T13:58:18;100693.44;;;7.40;84.19
12949;BME280;6539;49.476;8.484;2023-12-20T14:01:06;100690.28;;;7.38;84.41
12949;BME280;6539;49.476;8.484;2023-12-20T14:03:55;100691.09;;;7.39;84.02
12949;BME280;6539;49.476;8.484;2023-12-20T14:06:43;100686.94;;;7.55;83.21
12949;BME280;6539;49.476;8.484;2023-12-20T14:09:29;100693.97;;;7.56;82.58
12949;BME280;6539;49.476;8.484;2023-12-20T14:12:15;100693.19;;;7.56;82.91
12949;BME280;6539;49.476;8.484;2023-12-20T14:15:02;100698.63;;;7.52;83.10
12949;BME280;6539;49.476;8.484;2023-12-20T14:17:48;100693.91;;;7.49;83.87
12949;BME280;6539;49.476;8.484;2023-12-20T14:20:34;100695.44;;;7.43;84.93
12949;BME280;6539;49.476;8.484;2023-12-20T14:23:20;100697.06;;;7.51;85.05
12949;BME280;6539;49.476;8.484;2023-12-20T14:26:08;100697.84;;;7.55;85.16
12949;BME280;6539;49.476;8.484;2023-12-20T14:28:57;100687.75;;;7.59;85.14
12949;BME280;6539;49.476;8.484;2023-12-20T14:31:43;100687.31;;;7.54;85.77
12949;BME280;6539;49.476;8.484;2023-12-20T14:34:30;100687.72;;;7.56;85.91
12949;BME280;6539;49.476;8.484;2023-12-20T14:37:16;100678.41;;;7.60;85.90
12949;BME280;6539;49.476;8.484;2023-12-20T14:40:03;100686.13;;;7.51;85.58
12949;BME280;6539;49.476;8.484;2023-12-20T14:42:50;100672.84;;;7.50;85.98
12949;BME280;6539;49.476;8.484;2023-12-20T14:45:38;100676.63;;;7.38;87.45
12949;BME280;6539;49.476;8.484;2023-12-20T14:48:27;100685.16;;;7.33;87.97
12949;BME280;6539;49.476;8.484;2023-12-20T14:51:14;100686.31;;;7.29;89.07
12949;BME280;6539;49.476;8.484;2023-12-20T14:54:00;100681.22;;;7.27;88.64